createdAt,value
2022-10-31T00:02:13.783Z,13.87
2022-10-31T00:04:42.458Z,19.13
2022-10-31T00:07:12.399Z,17.73
2022-10-31T00:09:40.833Z,18.43
2022-10-31T00:12:09.525Z,15.40
2022-10-31T00:14:38.084Z,14.20
2022-10-31T00:17:06.695Z,14.97
2022-10-31T00:19:35.188Z,16.87
2022-10-31T00:22:03.747Z,22.00
2022-10-31T00:24:33.730Z,19.80
2022-10-31T00:27:02.303Z,15.67
2022-10-31T00:29:31.245Z,15.33
2022-10-31T00:32:01.732Z,17.47
2022-10-31T00:34:33.361Z,13.90
2022-10-31T00:37:02.268Z,18.87
2022-10-31T00:39:33.311Z,19.03
2022-10-31T00:42:03.422Z,16.40
2022-10-31T00:44:32.117Z,19.60
2022-10-31T00:47:01.092Z,14.30
2022-10-31T00:49:29.669Z,22.20
2022-10-31T00:51:58.414Z,18.73
2022-10-31T00:54:26.982Z,17.30
2022-10-31T00:56:55.688Z,16.43
2022-10-31T00:59:26.716Z,15.83
2022-10-31T01:01:55.337Z,18.10
2022-10-31T01:04:24.260Z,18.97
2022-10-31T01:06:52.914Z,18.20
2022-10-31T01:09:21.730Z,17.80
2022-10-31T01:11:50.694Z,15.33
2022-10-31T01:14:19.293Z,18.80
2022-10-31T01:16:49.393Z,17.90
2022-10-31T01:19:18.194Z,20.20
2022-10-31T01:21:46.779Z,13.53
2022-10-31T01:24:15.569Z,18.97
2022-10-31T01:26:44.158Z,20.77
2022-10-31T01:29:12.957Z,18.37
2022-10-31T01:31:42.535Z,18.63
2022-10-31T01:34:16.784Z,20.93
2022-10-31T01:36:48.380Z,21.33
2022-10-31T01:39:18.158Z,20.30
2022-10-31T01:41:50.208Z,20.30
2022-10-31T01:45:02.313Z,19.03
2022-10-31T01:47:41.812Z,22.60
2022-10-31T01:50:24.558Z,16.93
2022-10-31T01:52:54.178Z,19.73
2022-10-31T01:55:30.015Z,22.50
2022-10-31T01:58:04.426Z,19.97
2022-10-31T02:00:33.341Z,18.83
2022-10-31T02:03:02.362Z,21.83
2022-10-31T02:05:34.750Z,18.63
2022-10-31T02:08:09.675Z,20.90
2022-10-31T02:10:39.651Z,20.10
2022-10-31T02:13:10.534Z,21.43
2022-10-31T02:15:49.379Z,19.90
2022-10-31T02:18:19.022Z,23.40
2022-10-31T02:21:01.948Z,24.60
2022-10-31T02:24:26.007Z,20.67
2022-10-31T02:27:09.645Z,23.77
2022-10-31T02:30:12.333Z,20.20
2022-10-31T02:33:07.688Z,27.47
2022-10-31T02:35:53.053Z,23.63
2022-10-31T02:38:39.358Z,23.83
2022-10-31T02:41:20.738Z,25.93
2022-10-31T02:44:06.706Z,23.20
2022-10-31T02:46:42.227Z,21.97
2022-10-31T02:49:23.241Z,23.13
2022-10-31T02:51:52.658Z,21.00
2022-10-31T02:54:26.974Z,31.13
2022-10-31T02:57:02.540Z,24.93
2022-10-31T02:59:33.454Z,24.00
2022-10-31T03:02:27.964Z,21.53
2022-10-31T03:05:28.980Z,21.03
2022-10-31T03:08:05.236Z,20.70
2022-10-31T03:10:42.809Z,27.10
2022-10-31T03:13:18.211Z,21.80
2022-10-31T03:15:55.662Z,29.43
2022-10-31T03:18:31.671Z,31.13
2022-10-31T03:21:08.834Z,23.43
2022-10-31T03:23:39.703Z,22.50
2022-10-31T03:26:11.706Z,21.67
2022-10-31T03:28:47.174Z,19.60
2022-10-31T03:31:20.557Z,20.17
2022-10-31T03:33:52.273Z,22.93
2022-10-31T03:36:22.779Z,19.53
2022-10-31T03:38:53.295Z,17.63
2022-10-31T03:41:27.590Z,21.07
2022-10-31T03:44:02.075Z,23.13
2022-10-31T03:46:30.820Z,21.40
2022-10-31T03:49:01.602Z,20.37
2022-10-31T03:51:41.850Z,27.50
2022-10-31T03:54:17.117Z,20.10
2022-10-31T03:56:52.067Z,19.13
2022-10-31T03:59:26.260Z,19.03
2022-10-31T04:02:00.354Z,19.07
2022-10-31T04:04:31.342Z,24.17
2022-10-31T04:07:03.816Z,21.40
2022-10-31T04:09:37.191Z,20.83
2022-10-31T04:12:12.683Z,24.80
2022-10-31T04:15:08.206Z,28.13
2022-10-31T04:17:42.962Z,23.13
2022-10-31T04:20:13.448Z,19.77
2022-10-31T04:22:43.359Z,19.43
2022-10-31T04:25:13.645Z,21.47
2022-10-31T04:27:42.233Z,18.03
2022-10-31T04:30:12.965Z,24.00
2022-10-31T04:32:42.732Z,20.57
2022-10-31T04:35:11.564Z,26.10
2022-10-31T04:37:40.064Z,21.20
2022-10-31T04:40:12.114Z,23.20
2022-10-31T04:43:12.715Z,22.77
2022-10-31T04:45:42.015Z,26.20
2022-10-31T04:48:11.137Z,22.77
2022-10-31T04:50:42.246Z,22.80
2022-10-31T04:53:11.277Z,22.57
2022-10-31T04:55:56.755Z,19.57
2022-10-31T04:58:27.037Z,23.00
2022-10-31T05:00:55.999Z,29.63
2022-10-31T05:03:25.482Z,26.57
2022-10-31T05:05:54.089Z,25.47
2022-10-31T05:08:22.798Z,26.27
2022-10-31T05:10:55.128Z,25.43
2022-10-31T05:13:23.805Z,26.97
2022-10-31T05:16:10.738Z,22.90
2022-10-31T05:18:42.296Z,25.70
2022-10-31T05:21:29.273Z,24.57
2022-10-31T05:24:02.090Z,24.00
2022-10-31T05:26:32.722Z,23.53
2022-10-31T05:29:01.755Z,18.50
2022-10-31T05:31:31.027Z,23.10
2022-10-31T05:34:00.218Z,21.47
2022-10-31T05:36:47.225Z,21.23
2022-10-31T05:39:20.334Z,19.87
2022-10-31T05:41:52.731Z,20.47
2022-10-31T05:44:24.220Z,26.53
2022-10-31T05:47:25.245Z,23.77
2022-10-31T05:50:12.791Z,22.70
2022-10-31T05:52:59.703Z,18.17
2022-10-31T05:55:34.610Z,18.70
2022-10-31T05:58:13.503Z,19.67
2022-10-31T06:00:47.413Z,19.23
2022-10-31T06:03:17.485Z,19.60
2022-10-31T06:05:54.977Z,25.37
2022-10-31T06:08:26.826Z,25.90
2022-10-31T06:10:57.369Z,25.10
2022-10-31T06:13:47.529Z,22.20
2022-10-31T06:16:24.572Z,22.27
2022-10-31T06:18:54.696Z,27.47
2022-10-31T06:21:23.649Z,27.77
2022-10-31T06:23:53.675Z,21.50
2022-10-31T06:26:40.760Z,21.87
2022-10-31T06:29:11.416Z,17.73
2022-10-31T06:31:57.960Z,24.43
2022-10-31T06:34:26.675Z,24.10
2022-10-31T06:36:55.237Z,21.33
2022-10-31T06:39:27.157Z,25.67
2022-10-31T06:41:55.888Z,22.10
2022-10-31T06:44:30.561Z,23.40
2022-10-31T06:47:02.277Z,21.37
2022-10-31T06:50:11.149Z,19.13
2022-10-31T06:52:39.980Z,23.47
2022-10-31T06:55:09.490Z,21.07
2022-10-31T06:57:38.093Z,18.53
2022-10-31T07:00:10.939Z,17.43
2022-10-31T07:02:58.136Z,19.83
2022-10-31T07:05:27.905Z,18.40
2022-10-31T07:08:00.457Z,17.50
2022-10-31T07:10:37.294Z,18.20
2022-10-31T07:13:14.444Z,17.97
2022-10-31T07:15:50.347Z,18.27
2022-10-31T07:18:19.606Z,15.07
2022-10-31T07:20:50.033Z,15.83
2022-10-31T07:23:20.328Z,17.80
2022-10-31T07:26:02.776Z,13.30
2022-10-31T07:28:41.806Z,17.13
2022-10-31T07:31:12.162Z,15.33
2022-10-31T07:33:46.649Z,16.47
2022-10-31T07:36:30.618Z,17.83
2022-10-31T07:39:04.385Z,19.57
2022-10-31T07:41:35.742Z,15.17
2022-10-31T07:44:04.715Z,19.90
2022-10-31T07:46:58.609Z,19.13
2022-10-31T07:49:45.938Z,19.20
2022-10-31T07:53:02.132Z,20.57
2022-10-31T07:55:48.939Z,21.77
2022-10-31T07:58:19.491Z,23.30
2022-10-31T08:00:50.033Z,22.33
2022-10-31T08:03:31.747Z,19.07
2022-10-31T08:06:12.688Z,24.27
2022-10-31T08:09:04.431Z,24.00
2022-10-31T08:11:33.911Z,25.60
2022-10-31T08:14:04.010Z,27.90
2022-10-31T08:16:32.543Z,27.70
2022-10-31T08:19:05.362Z,29.13
2022-10-31T08:21:39.439Z,27.60
2022-10-31T08:24:10.613Z,29.90
2022-10-31T08:26:39.753Z,31.70
2022-10-31T08:29:11.144Z,31.43
2022-10-31T08:31:43.037Z,39.23
2022-10-31T08:34:31.866Z,30.70
2022-10-31T08:37:32.587Z,31.80
2022-10-31T08:40:01.356Z,33.10
2022-10-31T08:42:36.402Z,33.30
2022-10-31T08:45:06.453Z,28.47
2022-10-31T08:47:35.718Z,38.23
2022-10-31T08:50:07.883Z,32.40
2022-10-31T08:53:02.968Z,31.20
2022-10-31T08:55:25.798Z,34.90
2022-10-31T08:58:03.719Z,35.47
2022-10-31T09:00:41.403Z,35.57
2022-10-31T09:03:25.105Z,33.03
2022-10-31T09:06:00.748Z,37.53
2022-10-31T09:08:35.264Z,41.67
2022-10-31T09:11:07.516Z,37.87
2022-10-31T09:13:57.140Z,41.10
2022-10-31T09:16:57.822Z,36.33
2022-10-31T09:19:34.124Z,36.77
2022-10-31T09:22:04.277Z,44.30
2022-10-31T09:24:33.312Z,35.13
2022-10-31T09:27:02.400Z,41.93
2022-10-31T09:29:30.984Z,40.87
2022-10-31T09:32:01.923Z,48.90
2022-10-31T09:34:32.168Z,44.47
2022-10-31T09:37:09.233Z,39.00
2022-10-31T09:39:38.038Z,40.53
2022-10-31T09:42:40.598Z,44.20
2022-10-31T09:45:26.470Z,39.17
2022-10-31T09:48:13.604Z,39.70
2022-10-31T09:51:13.529Z,47.07
2022-10-31T09:54:12.978Z,36.27
2022-10-31T09:56:42.641Z,41.43
2022-10-31T09:59:33.621Z,44.43
2022-10-31T10:02:08.673Z,36.63
2022-10-31T10:04:45.484Z,39.97
2022-10-31T10:07:35.204Z,38.60
2022-10-31T10:10:33.839Z,43.00
2022-10-31T10:13:51.635Z,39.17
2022-10-31T10:16:39.784Z,38.23
2022-10-31T10:19:29.922Z,37.00
2022-10-31T10:22:07.955Z,35.70
2022-10-31T10:24:57.756Z,37.47
2022-10-31T10:27:44.042Z,35.53
2022-10-31T10:30:19.835Z,33.17
2022-10-31T10:32:54.515Z,32.33
2022-10-31T10:35:29.877Z,29.03
2022-10-31T10:38:04.579Z,32.90
2022-10-31T10:40:33.378Z,35.50
2022-10-31T10:43:20.985Z,39.70
2022-10-31T10:46:23.233Z,33.13
2022-10-31T10:49:00.274Z,36.00
2022-10-31T10:51:57.767Z,28.03
2022-10-31T10:55:00.517Z,32.90
2022-10-31T10:57:56.335Z,31.90
2022-10-31T11:00:29.622Z,34.20
2022-10-31T11:02:59.253Z,29.67
2022-10-31T11:05:37.455Z,31.57
2022-10-31T11:08:07.784Z,34.77
2022-10-31T11:10:37.257Z,38.27
2022-10-31T11:13:22.870Z,38.60
2022-10-31T11:16:01.586Z,35.63
2022-10-31T11:18:34.159Z,34.20
2022-10-31T11:21:06.960Z,37.03
2022-10-31T11:23:35.893Z,35.83
2022-10-31T11:26:07.498Z,44.43
2022-10-31T11:28:36.655Z,41.93
2022-10-31T11:31:15.182Z,42.23
2022-10-31T11:33:51.924Z,44.23
2022-10-31T11:36:26.081Z,54.33
2022-10-31T11:38:56.495Z,45.30
2022-10-31T11:41:32.752Z,41.87
2022-10-31T11:44:05.351Z,40.10
2022-10-31T11:46:40.411Z,45.67
2022-10-31T11:49:21.116Z,41.20
2022-10-31T11:51:54.767Z,42.50
2022-10-31T11:54:27.683Z,46.80
2022-10-31T11:56:56.336Z,41.97
2022-10-31T11:59:30.251Z,42.93
2022-10-31T12:02:02.490Z,40.60
2022-10-31T12:04:49.732Z,40.73
2022-10-31T12:07:18.525Z,46.10
2022-10-31T12:09:47.331Z,43.77
2022-10-31T12:12:39.361Z,41.47
2022-10-31T12:15:35.273Z,44.63
2022-10-31T12:18:45.222Z,42.60
2022-10-31T12:21:39.581Z,40.40
2022-10-31T12:24:27.516Z,38.90
2022-10-31T12:27:08.974Z,53.50
2022-10-31T12:30:04.999Z,51.17
2022-10-31T12:32:45.894Z,39.73
2022-10-31T12:35:36.840Z,44.70
2022-10-31T12:38:36.867Z,47.87
2022-10-31T12:41:35.969Z,43.07
2022-10-31T12:44:14.992Z,50.20
2022-10-31T12:47:08.370Z,48.87
2022-10-31T12:49:50.499Z,42.67
2022-10-31T12:52:41.734Z,41.20
2022-10-31T12:55:31.931Z,45.77
2022-10-31T12:58:07.475Z,41.97
2022-10-31T13:00:39.995Z,43.47
2022-10-31T13:03:35.361Z,39.77
2022-10-31T13:06:10.306Z,43.37
2022-10-31T13:08:47.110Z,37.80
2022-10-31T13:11:26.395Z,39.33
2022-10-31T13:14:03.609Z,41.30
2022-10-31T13:16:41.377Z,46.03
2022-10-31T13:19:21.216Z,41.10
2022-10-31T13:22:02.090Z,38.53
2022-10-31T13:24:38.449Z,39.73
2022-10-31T13:27:23.219Z,42.13
2022-10-31T13:30:03.369Z,42.70
2022-10-31T13:32:43.584Z,44.47
2022-10-31T13:35:22.406Z,36.80
2022-10-31T13:38:03.860Z,43.87
2022-10-31T13:40:47.154Z,41.83
2022-10-31T13:43:28.726Z,41.10
2022-10-31T13:45:58.803Z,39.20
2022-10-31T13:48:42.285Z,36.23
2022-10-31T13:51:13.434Z,44.13
2022-10-31T13:53:46.794Z,36.90
2022-10-31T13:56:23.409Z,43.50
2022-10-31T13:59:20.816Z,40.53
2022-10-31T14:01:54.055Z,46.53
2022-10-31T14:04:26.403Z,40.50
2022-10-31T14:07:08.716Z,40.47
2022-10-31T14:09:40.933Z,37.30
2022-10-31T14:12:28.623Z,45.53
2022-10-31T14:15:04.240Z,41.87
2022-10-31T14:17:42.839Z,39.93
2022-10-31T14:20:41.026Z,37.73
2022-10-31T14:23:41.203Z,41.60
2022-10-31T14:26:36.424Z,41.40
2022-10-31T14:29:28.310Z,46.30
2022-10-31T14:32:03.278Z,43.60
2022-10-31T14:34:36.325Z,38.87
2022-10-31T14:37:35.006Z,40.37
2022-10-31T14:40:27.222Z,37.63
2022-10-31T14:43:53.707Z,43.30
2022-10-31T14:46:39.693Z,44.27
2022-10-31T14:49:25.653Z,42.60
2022-10-31T14:51:54.758Z,41.07
2022-10-31T14:54:32.416Z,40.30
2022-10-31T14:57:06.974Z,42.23
2022-10-31T14:59:40.413Z,35.97
2022-10-31T15:02:18.407Z,34.97
2022-10-31T15:04:49.451Z,35.60
2022-10-31T15:07:24.921Z,37.33
2022-10-31T15:10:02.024Z,39.10
2022-10-31T15:12:35.787Z,35.00
2022-10-31T15:15:16.181Z,35.77
2022-10-31T15:17:50.225Z,32.60
2022-10-31T15:20:22.258Z,31.77
2022-10-31T15:22:51.722Z,28.37
2022-10-31T15:25:23.001Z,32.60
2022-10-31T15:27:53.842Z,37.97
2022-10-31T15:30:25.717Z,31.53
2022-10-31T15:32:58.815Z,28.27
2022-10-31T15:35:30.752Z,32.90
2022-10-31T15:38:02.595Z,32.77
2022-10-31T15:40:31.642Z,31.70
2022-10-31T15:43:03.955Z,35.43
2022-10-31T15:45:33.595Z,28.30
2022-10-31T15:48:06.564Z,29.33
2022-10-31T15:50:41.288Z,28.30
2022-10-31T15:53:20.542Z,29.70
2022-10-31T15:55:55.281Z,24.87
2022-10-31T15:58:24.784Z,27.53
2022-10-31T16:01:04.767Z,31.87
2022-10-31T16:03:36.147Z,28.47
2022-10-31T16:06:07.629Z,22.60
2022-10-31T16:08:38.223Z,25.90
2022-10-31T16:11:24.617Z,28.20
2022-10-31T16:14:02.899Z,33.20
2022-10-31T16:16:44.791Z,24.80
2022-10-31T16:19:22.685Z,26.03
2022-10-31T16:21:55.797Z,28.70
2022-10-31T16:24:33.530Z,22.27
2022-10-31T16:27:10.458Z,20.27
2022-10-31T16:29:48.914Z,24.50
2022-10-31T16:32:36.056Z,29.17
2022-10-31T16:35:26.870Z,21.23
2022-10-31T16:37:56.425Z,26.20
2022-10-31T16:40:27.742Z,25.60
2022-10-31T16:42:59.248Z,23.73
2022-10-31T16:45:32.393Z,23.87
2022-10-31T16:48:07.194Z,26.40
2022-10-31T16:50:37.327Z,28.30
2022-10-31T16:53:13.687Z,28.47
2022-10-31T16:55:47.522Z,22.70
2022-10-31T16:58:24.363Z,22.23
2022-10-31T17:00:53.905Z,23.63
2022-10-31T17:03:22.590Z,23.80
2022-10-31T17:05:52.678Z,32.30
2022-10-31T17:08:21.283Z,27.30
2022-10-31T17:10:52.811Z,29.63
2022-10-31T17:13:25.308Z,22.20
2022-10-31T17:15:57.913Z,27.10
2022-10-31T17:18:27.841Z,23.00
2022-10-31T17:21:00.891Z,25.83
2022-10-31T17:23:30.408Z,29.00
2022-10-31T17:25:59.228Z,24.97
2022-10-31T17:28:28.295Z,29.60
2022-10-31T17:30:59.354Z,24.53
2022-10-31T17:33:28.514Z,25.77
2022-10-31T17:35:58.840Z,22.50
2022-10-31T17:38:27.536Z,23.10
2022-10-31T17:40:56.360Z,25.50
2022-10-31T17:43:27.255Z,24.23
2022-10-31T17:45:55.962Z,23.33
2022-10-31T17:48:26.692Z,25.30
2022-10-31T17:50:55.408Z,23.13
2022-10-31T17:53:25.417Z,26.63
2022-10-31T17:55:54.805Z,29.77
2022-10-31T17:58:23.595Z,28.90
2022-10-31T18:00:52.167Z,27.07
2022-10-31T18:03:21.042Z,28.37
2022-10-31T18:05:58.926Z,25.40
2022-10-31T18:08:31.167Z,20.73
2022-10-31T18:11:00.959Z,30.00
2022-10-31T18:13:29.948Z,26.50
2022-10-31T18:15:59.141Z,25.77
2022-10-31T18:18:30.828Z,23.47
2022-10-31T18:20:59.956Z,25.70
2022-10-31T18:23:31.185Z,21.40
2022-10-31T18:25:59.758Z,22.30
2022-10-31T18:28:28.353Z,25.63
2022-10-31T18:30:59.726Z,26.40
2022-10-31T18:33:28.526Z,22.97
2022-10-31T18:35:58.036Z,27.60
2022-10-31T18:38:28.061Z,22.13
2022-10-31T18:40:58.359Z,22.20
2022-10-31T18:43:27.227Z,21.70
2022-10-31T18:45:58.134Z,25.80
2022-10-31T18:48:28.444Z,17.07
2022-10-31T18:50:58.232Z,20.77
2022-10-31T18:53:26.974Z,24.10
2022-10-31T18:55:57.597Z,17.60
2022-10-31T18:58:26.487Z,16.90
2022-10-31T19:00:55.813Z,19.47
2022-10-31T19:03:26.167Z,20.43
2022-10-31T19:05:56.936Z,15.93
2022-10-31T19:08:25.856Z,16.40
2022-10-31T19:10:54.794Z,16.17
2022-10-31T19:13:25.136Z,15.83
2022-10-31T19:15:53.822Z,19.37
2022-10-31T19:18:22.408Z,17.93
2022-10-31T19:20:50.917Z,19.63
2022-10-31T19:23:19.440Z,16.10
2022-10-31T19:25:48.024Z,17.33
2022-10-31T19:28:16.613Z,14.37
2022-10-31T19:30:55.385Z,16.63
2022-10-31T19:33:28.604Z,13.70
2022-10-31T19:36:01.582Z,16.90
2022-10-31T19:38:30.793Z,16.73
2022-10-31T19:41:00.255Z,14.47
2022-10-31T19:43:32.099Z,12.80
2022-10-31T19:46:03.789Z,23.10
2022-10-31T19:48:32.876Z,15.53
2022-10-31T19:51:06.898Z,20.63
2022-10-31T19:53:35.991Z,12.50
2022-10-31T19:56:05.209Z,12.80
2022-10-31T19:58:34.544Z,14.23
2022-10-31T20:01:10.231Z,18.20
2022-10-31T20:03:40.147Z,18.50
2022-10-31T20:06:14.600Z,17.73
2022-10-31T20:08:43.383Z,14.00
2022-10-31T20:11:11.971Z,20.33
2022-10-31T20:13:40.599Z,16.10
2022-10-31T20:16:14.679Z,14.33
2022-10-31T20:18:45.334Z,15.77
2022-10-31T20:21:16.757Z,15.70
2022-10-31T20:23:45.983Z,16.57
2022-10-31T20:26:18.768Z,16.10
2022-10-31T20:28:48.033Z,13.97
2022-10-31T20:31:20.931Z,12.80
2022-10-31T20:33:50.312Z,13.00
2022-10-31T20:36:23.028Z,21.57
2022-10-31T20:38:53.612Z,19.23
2022-10-31T20:41:22.387Z,13.27
2022-10-31T20:43:50.991Z,15.63
2022-10-31T20:46:24.464Z,18.60
2022-10-31T20:48:53.670Z,12.80
2022-10-31T20:51:24.072Z,12.40
2022-10-31T20:53:54.354Z,20.17
2022-10-31T20:56:25.276Z,13.20
2022-10-31T20:58:55.956Z,13.30
2022-10-31T21:01:28.865Z,11.67
2022-10-31T21:03:58.467Z,14.17
2022-10-31T21:06:27.681Z,20.20
2022-10-31T21:08:57.692Z,13.20
2022-10-31T21:11:29.153Z,12.40
2022-10-31T21:13:59.765Z,12.07
2022-10-31T21:16:32.349Z,13.57
2022-10-31T21:19:03.241Z,12.67
2022-10-31T21:21:36.371Z,12.83
2022-10-31T21:24:08.940Z,14.20
2022-10-31T21:26:43.607Z,13.67
2022-10-31T21:29:14.552Z,16.93
2022-10-31T21:31:45.415Z,15.63
2022-10-31T21:34:14.190Z,14.13
2022-10-31T21:36:42.893Z,17.43
2022-10-31T21:39:11.582Z,12.73
2022-10-31T21:41:39.981Z,16.57
2022-10-31T21:44:08.872Z,13.83
2022-10-31T21:46:38.747Z,18.03
2022-10-31T21:49:08.974Z,13.23
2022-10-31T21:51:37.978Z,11.53
2022-10-31T21:54:24.278Z,13.07
2022-10-31T21:56:52.789Z,12.07
2022-10-31T21:59:21.420Z,12.40
2022-10-31T22:01:50.669Z,16.37
2022-10-31T22:04:21.266Z,13.03
2022-10-31T22:06:49.886Z,15.00
2022-10-31T22:09:19.793Z,14.17
2022-10-31T22:11:48.444Z,13.67
2022-10-31T22:14:17.368Z,13.17
2022-10-31T22:16:46.041Z,13.07
2022-10-31T22:19:17.074Z,16.43
2022-10-31T22:21:49.088Z,12.57
2022-10-31T22:24:18.791Z,9.67
2022-10-31T22:26:47.537Z,13.43
2022-10-31T22:29:18.842Z,11.80
2022-10-31T22:31:52.069Z,15.17
2022-10-31T22:34:23.980Z,12.20
2022-10-31T22:36:56.223Z,12.60
2022-10-31T22:39:24.833Z,12.90
2022-10-31T22:41:53.316Z,13.93
2022-10-31T22:44:21.900Z,13.87
2022-10-31T22:46:50.493Z,15.53
2022-10-31T22:49:19.152Z,12.80
2022-10-31T22:51:47.667Z,15.73
2022-10-31T22:54:19.827Z,10.80
2022-10-31T22:56:48.465Z,11.40
2022-10-31T22:59:18.248Z,14.20
2022-10-31T23:01:47.387Z,13.97
2022-10-31T23:04:17.236Z,13.53
2022-10-31T23:06:46.567Z,14.60
2022-10-31T23:09:18.708Z,13.80
2022-10-31T23:11:47.645Z,15.37
2022-10-31T23:14:20.544Z,13.17
2022-10-31T23:16:51.957Z,13.83
2022-10-31T23:19:23.251Z,17.67
2022-10-31T23:22:00.151Z,13.00
2022-10-31T23:24:35.806Z,14.53
2022-10-31T23:27:06.343Z,14.83
2022-10-31T23:29:36.623Z,13.20
2022-10-31T23:32:07.788Z,11.20
2022-10-31T23:34:38.452Z,16.37
2022-10-31T23:39:37.386Z,11.00
2022-10-31T23:42:06.504Z,14.17
2022-10-31T23:44:34.954Z,16.07
2022-10-31T23:47:03.872Z,13.17
2022-10-31T23:49:32.448Z,11.37
2022-10-31T23:52:01.255Z,17.03
2022-10-31T23:54:30.073Z,12.73
2022-10-31T23:57:00.052Z,11.67
2022-10-31T23:59:30.313Z,12.73
